createdAt,value
2023-03-22T00:02:18.806Z,36.20
2023-03-22T00:04:47.030Z,34.90
2023-03-22T00:07:15.538Z,34.00
2023-03-22T00:09:44.200Z,34.20
2023-03-22T00:12:12.474Z,35.50
2023-03-22T00:14:41.569Z,34.70
2023-03-22T00:17:09.848Z,36.30
2023-03-22T00:19:38.534Z,36.90
2023-03-22T00:22:07.116Z,37.50
2023-03-22T00:24:35.288Z,45.20
2023-03-22T00:27:03.888Z,37.60
2023-03-22T00:29:31.923Z,40.40
2023-03-22T00:32:00.372Z,41.00
2023-03-22T00:34:33.294Z,37.90
2023-03-22T00:37:01.592Z,35.30
2023-03-22T00:39:30.484Z,34.60
2023-03-22T00:41:58.571Z,34.10
2023-03-22T00:44:27.367Z,33.20
2023-03-22T00:46:55.644Z,35.50
2023-03-22T00:49:25.743Z,31.90
2023-03-22T00:51:54.123Z,37.00
2023-03-22T00:54:22.915Z,33.90
2023-03-22T00:56:51.198Z,32.80
2023-03-22T00:59:19.678Z,34.50
2023-03-22T01:01:47.848Z,34.40
2023-03-22T01:04:18.319Z,36.60
2023-03-22T01:06:47.411Z,35.00
2023-03-22T01:09:16.054Z,32.90
2023-03-22T01:11:46.279Z,34.30
2023-03-22T01:14:14.677Z,36.20
2023-03-22T01:16:43.383Z,34.80
2023-03-22T01:19:11.820Z,33.90
2023-03-22T01:21:40.614Z,35.80
2023-03-22T01:24:08.986Z,35.90
2023-03-22T01:26:37.877Z,33.90
2023-03-22T01:29:06.254Z,37.20
2023-03-22T01:31:35.357Z,37.80
2023-03-22T01:34:04.142Z,34.20
2023-03-22T01:36:32.925Z,38.10
2023-03-22T01:39:01.106Z,35.60
2023-03-22T01:41:34.883Z,37.60
2023-03-22T01:44:13.534Z,33.90
2023-03-22T01:46:47.780Z,32.30
2023-03-22T01:49:18.892Z,32.50
2023-03-22T01:51:50.839Z,33.90
2023-03-22T01:54:34.860Z,32.60
2023-03-22T01:57:06.062Z,32.50
2023-03-22T01:59:41.361Z,31.40
2023-03-22T02:02:36.816Z,32.90
2023-03-22T02:05:14.600Z,32.00
2023-03-22T02:07:43.695Z,32.70
2023-03-22T02:10:14.229Z,32.80
2023-03-22T02:13:30.864Z,33.80
2023-03-22T02:16:42.838Z,33.70
2023-03-22T02:20:11.221Z,36.30
2023-03-22T02:23:18.412Z,38.40
2023-03-22T02:25:58.981Z,35.20
2023-03-22T02:28:45.378Z,36.60
2023-03-22T02:31:24.857Z,35.50
2023-03-22T02:33:56.269Z,34.40
2023-03-22T02:36:34.890Z,31.90
2023-03-22T02:39:42.376Z,32.50
2023-03-22T02:42:39.949Z,30.70
2023-03-22T02:45:35.058Z,31.70
2023-03-22T02:48:19.076Z,32.80
2023-03-22T02:51:26.394Z,33.20
2023-03-22T02:54:18.782Z,30.20
2023-03-22T02:57:01.039Z,29.50
2023-03-22T02:59:32.117Z,31.30
2023-03-22T03:02:03.879Z,30.00
2023-03-22T03:04:36.721Z,31.40
2023-03-22T03:07:09.542Z,32.70
2023-03-22T03:09:41.976Z,33.90
2023-03-22T03:12:34.350Z,33.20
2023-03-22T03:15:02.496Z,35.00
2023-03-22T03:17:46.351Z,36.30
2023-03-22T03:20:30.262Z,34.70
2023-03-22T03:23:01.634Z,37.00
2023-03-22T03:25:43.716Z,37.90
2023-03-22T03:28:23.210Z,34.60
2023-03-22T03:31:09.468Z,35.20
2023-03-22T03:33:53.309Z,31.70
2023-03-22T03:36:24.765Z,32.60
2023-03-22T03:38:56.257Z,31.20
2023-03-22T03:41:30.987Z,37.40
2023-03-22T03:44:00.160Z,31.10
2023-03-22T03:46:29.462Z,30.10
2023-03-22T03:48:58.847Z,32.00
2023-03-22T03:51:28.450Z,47.40
2023-03-22T03:53:56.973Z,57.00
2023-03-22T03:56:25.620Z,61.50
2023-03-22T03:58:54.716Z,66.90
2023-03-22T04:01:24.322Z,72.00
2023-03-22T04:04:15.493Z,83.80
2023-03-22T04:06:59.251Z,85.30
2023-03-22T04:09:32.881Z,86.80
2023-03-22T04:12:21.535Z,84.90
2023-03-22T04:15:12.269Z,91.50
2023-03-22T04:17:42.150Z,77.40
2023-03-22T04:20:12.723Z,83.80
2023-03-22T04:22:41.878Z,81.30
2023-03-22T04:25:13.614Z,80.50
2023-03-22T04:27:51.540Z,88.00
2023-03-22T04:30:21.763Z,82.50
2023-03-22T04:33:08.693Z,88.00
2023-03-22T04:35:57.493Z,85.20
2023-03-22T04:41:03.407Z,82.60
2023-03-22T04:43:39.482Z,88.70
2023-03-22T04:46:13.048Z,76.00
2023-03-22T04:49:04.485Z,83.50
2023-03-22T04:51:33.583Z,78.80
2023-03-22T04:54:14.468Z,86.10
2023-03-22T04:56:43.453Z,89.00
2023-03-22T04:59:13.361Z,88.70
2023-03-22T05:01:42.812Z,82.00
2023-03-22T05:04:18.785Z,88.40
2023-03-22T05:06:48.023Z,88.10
2023-03-22T05:09:24.596Z,78.20
2023-03-22T05:11:54.586Z,80.20
2023-03-22T05:14:27.867Z,80.20
2023-03-22T05:16:56.490Z,82.40
2023-03-22T05:19:25.282Z,79.20
2023-03-22T05:21:58.663Z,86.80
2023-03-22T05:24:47.646Z,82.70
2023-03-22T05:27:31.467Z,84.00
2023-03-22T05:30:19.008Z,85.00
2023-03-22T05:32:51.992Z,76.80
2023-03-22T05:35:20.430Z,83.70
2023-03-22T05:37:53.056Z,77.20
2023-03-22T05:40:21.844Z,79.40
2023-03-22T05:42:50.442Z,78.60
2023-03-22T05:45:23.214Z,86.30
2023-03-22T05:48:00.068Z,84.40
2023-03-22T05:50:28.887Z,102.50
2023-03-22T05:52:57.523Z,83.80
2023-03-22T05:55:46.326Z,85.80
2023-03-22T05:58:19.330Z,79.30
2023-03-22T06:00:51.910Z,84.40
2023-03-22T06:03:26.553Z,90.80
2023-03-22T06:05:58.593Z,83.40
2023-03-22T06:08:41.502Z,79.30
2023-03-22T06:11:09.892Z,75.20
2023-03-22T06:13:38.574Z,80.00
2023-03-22T06:16:08.164Z,82.30
2023-03-22T06:18:36.663Z,86.40
2023-03-22T06:21:09.771Z,83.20
2023-03-22T06:23:38.847Z,83.60
2023-03-22T06:26:09.582Z,78.60
2023-03-22T06:28:38.159Z,82.70
2023-03-22T06:31:10.560Z,84.20
2023-03-22T06:33:54.793Z,83.60
2023-03-22T06:36:32.169Z,84.60
2023-03-22T06:39:27.275Z,82.80
2023-03-22T06:41:55.560Z,80.70
2023-03-22T06:44:24.234Z,87.00
2023-03-22T06:46:52.741Z,96.40
2023-03-22T06:49:44.061Z,96.80
2023-03-22T06:52:17.238Z,79.40
2023-03-22T06:54:46.216Z,81.50
2023-03-22T06:57:14.389Z,82.50
2023-03-22T06:59:42.777Z,83.90
2023-03-22T07:02:14.222Z,82.70
2023-03-22T07:04:46.778Z,83.90
2023-03-22T07:07:16.101Z,84.20
2023-03-22T07:09:44.595Z,85.60
2023-03-22T07:12:14.210Z,77.40
2023-03-22T07:14:43.084Z,77.60
2023-03-22T07:17:34.090Z,85.00
2023-03-22T07:20:04.115Z,80.20
2023-03-22T07:22:33.008Z,79.30
2023-03-22T07:25:01.946Z,78.80
2023-03-22T07:27:32.631Z,82.00
2023-03-22T07:30:01.648Z,75.40
2023-03-22T07:32:30.159Z,73.10
2023-03-22T07:35:07.284Z,77.80
2023-03-22T07:37:35.893Z,87.60
2023-03-22T07:40:12.645Z,79.00
2023-03-22T07:42:41.029Z,78.30
2023-03-22T07:45:41.666Z,82.30
2023-03-22T07:48:31.370Z,82.00
2023-03-22T07:51:16.210Z,87.00
2023-03-22T07:53:45.205Z,80.30
2023-03-22T07:56:14.136Z,81.30
2023-03-22T07:58:42.407Z,73.80
2023-03-22T08:01:11.163Z,77.10
2023-03-22T08:03:59.409Z,68.70
2023-03-22T08:06:37.061Z,74.60
2023-03-22T08:09:05.589Z,81.30
2023-03-22T08:11:33.763Z,77.60
2023-03-22T08:14:02.042Z,85.10
2023-03-22T08:16:31.956Z,84.00
2023-03-22T08:19:01.255Z,76.30
2023-03-22T08:21:30.659Z,80.40
2023-03-22T08:23:59.954Z,71.80
2023-03-22T08:26:40.625Z,77.60
2023-03-22T08:29:18.423Z,78.70
2023-03-22T08:31:48.407Z,74.00
2023-03-22T08:34:17.028Z,76.90
2023-03-22T08:36:46.945Z,77.90
2023-03-22T08:39:15.470Z,76.20
2023-03-22T08:42:07.049Z,78.90
2023-03-22T08:44:37.190Z,80.30
2023-03-22T08:47:05.958Z,87.50
2023-03-22T08:49:34.434Z,80.80
2023-03-22T08:52:09.066Z,82.80
2023-03-22T08:55:10.412Z,75.80
2023-03-22T08:57:59.235Z,83.80
2023-03-22T09:00:47.819Z,83.90
2023-03-22T09:03:43.950Z,88.80
2023-03-22T09:06:14.366Z,80.90
2023-03-22T09:08:43.684Z,82.40
2023-03-22T09:11:17.280Z,83.60
2023-03-22T09:13:48.433Z,82.70
2023-03-22T09:16:18.413Z,76.60
2023-03-22T09:18:47.443Z,74.20
2023-03-22T09:21:22.067Z,79.70
2023-03-22T09:23:57.896Z,82.10
2023-03-22T09:26:38.291Z,84.30
2023-03-22T09:29:09.111Z,92.20
2023-03-22T09:31:37.918Z,84.70
2023-03-22T09:34:18.068Z,77.20
2023-03-22T09:36:47.771Z,83.50
2023-03-22T09:39:18.808Z,77.10
2023-03-22T09:41:59.677Z,82.70
2023-03-22T09:44:47.007Z,79.90
2023-03-22T09:47:30.814Z,79.00
2023-03-22T09:50:14.039Z,80.00
2023-03-22T09:52:43.837Z,84.70
2023-03-22T09:55:39.748Z,86.20
2023-03-22T09:58:27.870Z,89.90
2023-03-22T10:01:12.811Z,85.40
2023-03-22T10:03:47.363Z,84.80
2023-03-22T10:06:19.641Z,90.50
2023-03-22T10:09:17.830Z,84.20
2023-03-22T10:12:11.886Z,78.50
2023-03-22T10:14:51.820Z,70.60
2023-03-22T10:17:26.151Z,90.80
2023-03-22T10:20:12.673Z,75.20
2023-03-22T10:22:43.853Z,83.60
2023-03-22T10:25:19.343Z,85.50
2023-03-22T10:27:50.895Z,79.50
2023-03-22T10:30:30.313Z,79.20
2023-03-22T10:33:04.820Z,81.70
2023-03-22T10:35:33.118Z,80.90
2023-03-22T10:38:05.243Z,82.70
2023-03-22T10:40:35.763Z,76.20
2023-03-22T10:43:11.886Z,81.00
2023-03-22T10:45:40.753Z,79.20
2023-03-22T10:48:29.963Z,80.20
2023-03-22T10:50:59.484Z,79.60
2023-03-22T10:53:37.505Z,79.00
2023-03-22T10:56:11.414Z,81.80
2023-03-22T10:58:39.641Z,80.60
2023-03-22T11:01:11.041Z,90.60
2023-03-22T11:03:45.265Z,81.50
2023-03-22T11:06:32.999Z,74.10
2023-03-22T11:09:12.171Z,92.30
2023-03-22T11:11:56.502Z,76.40
2023-03-22T11:14:31.297Z,76.10
2023-03-22T11:17:08.131Z,71.10
2023-03-22T11:19:39.463Z,76.50
2023-03-22T11:22:16.715Z,76.00
2023-03-22T11:24:47.102Z,77.10
2023-03-22T11:27:26.427Z,75.20
2023-03-22T11:29:58.697Z,70.90
2023-03-22T11:32:35.483Z,73.10
2023-03-22T11:35:13.394Z,71.80
2023-03-22T11:38:02.444Z,79.00
2023-03-22T11:40:34.100Z,67.70
2023-03-22T11:43:17.437Z,77.40
2023-03-22T11:45:48.564Z,76.40
2023-03-22T11:48:27.397Z,69.30
2023-03-22T11:51:04.774Z,76.10
2023-03-22T11:53:35.931Z,72.30
2023-03-22T11:56:07.813Z,67.40
2023-03-22T11:58:56.647Z,74.70
2023-03-22T12:01:43.458Z,66.30
2023-03-22T12:04:18.285Z,63.40
2023-03-22T12:06:47.900Z,68.50
2023-03-22T12:09:45.032Z,62.70
2023-03-22T12:12:31.512Z,61.60
2023-03-22T12:15:21.236Z,62.20
2023-03-22T12:18:26.787Z,63.00
2023-03-22T12:20:56.086Z,63.10
2023-03-22T12:23:28.152Z,60.70
2023-03-22T12:26:12.004Z,59.90
2023-03-22T12:28:46.931Z,60.10
2023-03-22T12:31:22.754Z,59.00
2023-03-22T12:33:54.380Z,56.20
2023-03-22T12:36:34.287Z,50.70
2023-03-22T12:39:07.169Z,56.40
2023-03-22T12:41:42.818Z,57.90
2023-03-22T12:44:17.683Z,58.10
2023-03-22T12:46:53.846Z,56.60
2023-03-22T12:49:49.023Z,56.10
2023-03-22T12:52:32.050Z,61.60
2023-03-22T12:55:10.712Z,64.60
2023-03-22T12:57:38.835Z,71.60
2023-03-22T13:00:16.035Z,74.80
2023-03-22T13:03:17.752Z,78.30
2023-03-22T13:05:48.864Z,71.90
2023-03-22T13:08:22.543Z,66.40
2023-03-22T13:11:03.461Z,62.60
2023-03-22T13:13:40.077Z,62.30
2023-03-22T13:16:09.443Z,62.60
2023-03-22T13:18:58.488Z,60.30
2023-03-22T13:21:30.112Z,60.20
2023-03-22T13:24:01.343Z,61.50
2023-03-22T13:26:47.955Z,66.20
2023-03-22T13:29:24.827Z,60.00
2023-03-22T13:32:21.266Z,70.60
2023-03-22T13:34:53.200Z,58.50
2023-03-22T13:37:31.716Z,59.70
2023-03-22T13:40:02.503Z,53.20
2023-03-22T13:42:37.094Z,48.50
2023-03-22T13:45:27.604Z,53.20
2023-03-22T13:48:29.683Z,48.70
2023-03-22T13:51:11.074Z,36.10
2023-03-22T13:53:43.893Z,33.10
2023-03-22T13:56:13.751Z,34.90
2023-03-22T13:58:53.295Z,62.60
2023-03-22T14:01:57.649Z,133.80
2023-03-22T14:04:39.539Z,36.20
2023-03-22T14:07:28.996Z,34.30
2023-03-22T14:10:12.648Z,38.50
2023-03-22T14:13:03.122Z,33.90
2023-03-22T14:15:45.343Z,35.10
2023-03-22T14:18:30.643Z,33.30
2023-03-22T14:21:13.314Z,28.90
